Latest Weather Observations for Newcastle Nobbys

IDN60801

Issued at 2:04 pm EDT Sunday 21 December 2014 (issued every 30 minutes, with the page automatically refreshed every 10 minutes)

About weather observations | Map of weather stations | Latest weather observations for NSW | Other Formats
Station Details ID: 061055 Name: NEWCASTLE NOBBYS SIGNAL STATION AWS Lat: -32.92 Lon: 151.80 Height: 33.0 m
Data from the previous 72 hours. | See also: Recent months at Newcastle Nobbys
Date/Time
EDT
Temp
°C
App
Temp
°C
Dew
Point
Rel
Hum
%
Delta-T
°C
Wind Press
QNH
hPa
Press
MSL
hPa
Rain
since 9 am
mm
Dir
 
Spd
km/h
Gust
km/h
Spd
kts
Gust
kts
21/02:00pm 23.5 20.5 18.6 74 3.1 E 32 37 17 20 - - 0.0
21/01:30pm 23.5 20.6 17.9 71 3.5 E 30 35 16 19 - - 0.0
21/01:00pm 23.5 20.9 17.9 71 3.5 E 28 33 15 18 - - 0.0
21/12:30pm 23.6 21.1 18.0 71 3.5 E 28 32 15 17 - - 0.0
21/12:00pm 23.5 20.9 17.7 70 3.6 E 28 32 15 17 - - 0.0
21/11:30am 23.6 21.5 18.0 71 3.5 E 26 28 14 15 - - 0.0
21/11:00am 23.5 22.0 17.7 70 3.6 E 22 28 12 15 - - 0.0
21/10:30am 23.7 22.9 17.9 70 3.6 E 19 22 10 12 - - 0.0
21/10:00am 23.4 22.9 17.8 71 3.5 ESE 17 19 9 10 - - 0.0
21/09:30am 23.4 23.6 17.6 70 3.6 E 13 15 7 8 - - 0.0
21/09:00am 23.0 23.7 17.0 69 3.7 E 9 11 5 6 - - 0.0
21/08:30am 22.6 23.6 16.9 70 3.5 ENE 7 11 4 6 - - 0.0
21/08:00am 21.7 22.1 16.4 72 3.2 NE 9 13 5 7 - - 0.0
21/07:30am 21.5 21.5 16.2 72 3.2 NE 11 13 6 7 - - 0.0
21/07:00am 21.0 21.3 16.0 73 3.0 ENE 9 13 5 7 - - 0.0
21/06:30am 20.6 21.5 16.6 78 2.4 ENE 7 11 4 6 - - 0.0
21/06:00am 20.0 20.4 16.2 79 2.3 ENE 9 13 5 7 - - 0.0
21/05:30am 19.6 20.3 16.1 80 2.1 NE 7 9 4 5 - - 0.0
21/05:00am 19.6 19.9 16.1 80 2.1 ENE 9 11 5 6 - - 0.0
21/04:30am 19.7 20.0 16.0 79 2.2 ENE 9 11 5 6 - - 0.0
21/04:00am 19.8 20.1 16.1 79 2.2 NE 9 13 5 7 - - 0.0
21/03:30am 19.6 19.8 15.7 78 2.3 ENE 9 13 5 7 - - 0.0
21/03:00am 19.7 20.0 16.0 79 2.2 ENE 9 11 5 6 - - 0.0
21/02:30am 19.6 20.2 15.7 78 2.3 NE 7 11 4 6 - - 0.0
21/02:00am 19.7 20.5 15.8 78 2.3 NE 6 9 3 5 - - 0.0
21/01:30am 19.8 20.4 15.7 77 2.4 NE 7 9 4 5 - - 0.0
21/01:00am 20.0 20.2 15.8 77 2.5 NE 9 13 5 7 - - 0.0
21/12:30am 19.9 19.6 15.5 76 2.6 NE 11 15 6 8 - - 0.0
21/12:00am 20.1 19.9 15.7 76 2.6 NE 11 15 6 8 - - 0.0
 
Date/Time
EDT
Temp
°C
App
Temp
°C
Dew
Point
Rel
Hum
%
Delta-T
°C
Wind Press
QNH
hPa
Press
MSL
hPa
Rain
since 9 am
mm
Dir
 
Spd
km/h
Gust
km/h
Spd
kts
Gust
kts
20/11:30pm 20.2 20.0 15.8 76 2.6 NE 11 15 6 8 - - 0.0
20/11:00pm 20.5 19.6 15.9 75 2.8 NE 15 19 8 10 - - 0.0
20/10:30pm 20.4 19.7 15.4 73 3.0 NE 13 17 7 9 - - 0.0
20/10:00pm 20.6 19.2 15.6 73 3.0 NE 17 20 9 11 - - 0.0
20/09:30pm 20.7 19.7 15.7 73 3.0 NE 15 19 8 10 - - 0.0
20/09:00pm 20.7 19.7 15.7 73 3.0 ENE 15 19 8 10 - - 0.0
20/08:30pm 20.6 18.6 14.9 70 3.4 E 19 22 10 12 - - 0.0
20/08:00pm 20.4 18.2 14.5 69 3.4 E 19 22 10 12 - - 0.0
20/07:30pm 20.5 18.0 14.2 67 3.7 E 20 24 11 13 - - 0.0
20/07:00pm 20.4 17.7 13.6 65 3.9 E 20 22 11 12 - - 0.0
20/06:30pm 20.6 17.6 13.8 65 3.9 E 22 26 12 14 - - 0.0
20/06:00pm 21.1 18.2 14.0 64 4.1 ESE 22 26 12 14 - - 0.0
20/05:30pm 21.1 17.5 13.0 60 4.6 ESE 24 26 13 14 - - 0.0
20/05:00pm 21.2 18.0 13.1 60 4.6 ESE 22 26 12 14 - - 0.0
20/04:30pm 21.5 17.9 13.2 59 4.8 ESE 24 28 13 15 - - 0.0
20/04:00pm 21.7 18.1 13.1 58 4.9 ESE 24 26 13 14 - - 0.0
20/03:30pm 21.9 18.8 13.5 59 4.9 ESE 22 24 12 13 - - 0.0
20/03:00pm 22.2 19.4 13.3 57 5.1 ESE 20 24 11 13 - - 0.0
20/02:30pm 22.1 19.2 12.9 56 5.3 ESE 20 24 11 13 - - 0.0
20/02:00pm 22.2 19.7 12.2 53 5.7 SE 17 19 9 10 - - 0.0
20/01:30pm 22.2 20.0 12.2 53 5.7 SE 15 17 8 9 - - 0.0
20/01:00pm 22.7 21.2 13.2 55 5.5 SE 13 15 7 8 - - 0.0
20/12:30pm 22.6 21.0 12.8 54 5.6 SE 13 17 7 9 - - 0.0
20/12:00pm 22.9 21.6 13.7 56 5.4 SE 13 15 7 8 - - 0.0
20/11:30am 22.4 21.0 13.5 57 5.2 SE 13 15 7 8 - - 0.0
20/11:00am 21.8 20.5 12.6 56 5.2 SE 11 13 6 7 - - 0.0
20/10:30am 21.9 20.2 12.5 55 5.3 SE 13 15 7 8 - - 0.0
20/10:00am 21.6 20.3 12.5 56 5.2 SE 11 15 6 8 - - 0.0
20/09:30am 21.6 19.2 12.7 57 5.1 SE 17 19 9 10 - - 0.0
20/09:00am 21.0 19.1 12.9 60 4.6 SE 15 17 8 9 - - 0.0
20/08:30am 20.4 18.7 12.6 61 4.4 SSE 13 15 7 8 - - 0.0
20/08:00am 20.1 18.1 12.6 62 4.2 SSE 15 17 8 9 - - 0.0
20/07:30am 19.9 17.0 12.9 64 4.0 S 20 24 11 13 - - 0.0
20/07:00am 20.1 17.7 12.8 63 4.1 SSE 17 22 9 12 - - 0.0
20/06:30am 19.6 16.8 13.3 67 3.6 S 20 26 11 14 - - 0.0
20/06:00am 19.6 17.0 13.3 67 3.6 SSE 19 20 10 11 - - 0.0
20/05:30am 19.4 16.8 13.3 68 3.5 S 19 22 10 12 - - 0.0
20/05:00am 19.3 17.7 12.8 66 3.7 SSE 13 17 7 9 - - 0.0
20/04:30am 19.3 17.2 12.3 64 3.9 SSE 15 17 8 9 - - 0.0
20/04:00am 19.4 16.8 13.1 67 3.6 SSE 19 20 10 11 - - 0.0
20/03:30am 19.5 17.4 12.3 63 4.0 SSE 15 17 8 9 - - 0.0
20/03:00am 19.5 17.1 12.5 64 3.9 SSE 17 20 9 11 - - 0.0
20/02:30am 19.7 16.7 12.5 63 4.0 SE 20 24 11 13 - - 0.0
20/02:00am 19.8 17.1 11.8 60 4.4 SSE 17 19 9 10 - - 0.0
20/01:30am 19.7 17.3 12.5 63 4.0 SSE 17 24 9 13 - - 0.0
20/01:00am 19.7 16.4 11.5 59 4.5 SSE 20 28 11 15 - - 0.0
20/12:30am 19.6 16.6 12.1 62 4.2 SE 19 26 10 14 - - 0.0
20/12:00am 19.6 16.4 11.1 58 4.7 SSE 19 26 10 14 - - 0.0
 
Date/Time
EDT
Temp
°C
App
Temp
°C
Dew
Point
Rel
Hum
%
Delta-T
°C
Wind Press
QNH
hPa
Press
MSL
hPa
Rain
since 9 am
mm
Dir
 
Spd
km/h
Gust
km/h
Spd
kts
Gust
kts
19/11:30pm 19.4 15.9 13.3 68 3.5 SE 24 30 13 16 - - 0.0
19/11:00pm 19.7 16.7 12.5 63 4.0 SE 20 28 11 15 - - 0.0
19/10:30pm 19.9 16.5 13.6 67 3.6 SSE 24 32 13 17 - - 0.0
19/10:00pm 19.9 16.3 12.9 64 4.0 SSE 24 28 13 15 - - 0.0
19/09:30pm 20.0 16.2 13.7 67 3.6 SSE 26 32 14 17 - - 0.0
19/09:00pm 19.9 15.6 13.1 65 3.9 SSE 28 35 15 19 - - 0.0
19/08:30pm 20.0 16.5 13.5 66 3.7 SSE 24 28 13 15 - - 0.0
19/08:00pm 20.1 16.6 13.3 65 3.9 SSE 24 28 13 15 - - 0.0
19/07:30pm 20.0 16.1 13.2 65 3.9 SSE 26 32 14 17 - - 0.0
19/07:00pm 20.1 15.8 13.1 64 4.0 SSE 28 32 15 17 - - 0.0
19/06:30pm 20.3 16.3 13.0 63 4.1 SSE 26 30 14 16 - - 0.0
19/06:00pm 20.7 16.9 13.6 64 4.1 SSE 26 30 14 16 - - 0.0
19/05:30pm 20.7 16.5 13.4 63 4.2 SSE 28 32 15 17 - - 0.0
19/05:00pm 20.8 16.5 13.3 62 4.3 SSE 28 32 15 17 - - 0.0
19/04:30pm 20.7 16.9 13.6 64 4.1 SSE 26 30 14 16 - - 0.0
19/04:00pm 20.7 17.0 13.9 65 3.9 S 26 32 14 17 - - 0.0
19/03:30pm 20.7 16.7 14.1 66 3.8 SSE 28 30 15 16 - - 0.0
19/03:00pm 21.3 18.2 14.5 65 4.0 SSE 24 30 13 16 - - 0.0
19/02:30pm 21.3 17.2 13.7 62 4.4 SSE 28 32 15 17 - - 0.0
19/02:00pm 20.9 17.1 13.6 63 4.2 SSE 26 30 14 16 - - 0.0
19/01:30pm 21.1 17.0 13.8 63 4.2 SSE 28 32 15 17 - - 0.0
19/01:00pm 21.0 16.9 13.7 63 4.2 SSE 28 33 15 18 - - 0.0
19/12:30pm 20.5 15.4 13.2 63 4.2 S 32 35 17 19 - - 0.0
19/12:00pm 20.7 16.9 13.6 64 4.1 S 26 32 14 17 - - 0.0
19/11:30am 20.7 16.7 14.1 66 3.8 S 28 33 15 18 - - 0.0
19/11:00am 20.5 16.4 14.8 70 3.3 S 30 35 16 19 - - 0.0
19/10:30am 20.7 17.2 14.4 67 3.7 S 26 32 14 17 - - 0.0
19/10:00am 20.1 16.2 14.5 70 3.3 S 28 32 15 17 - - 0.0
19/09:30am 20.0 15.5 14.8 72 3.0 S 32 37 17 20 - - 0.0
19/09:00am 20.1 15.6 15.5 75 2.7 S 33 39 18 21 - - 0.0
19/08:30am 19.9 13.8 15.1 74 2.8 S 41 48 22 26 - - 0.0
19/08:00am 20.1 14.2 15.7 76 2.6 SSW 41 54 22 29 - - 0.0
19/07:30am 19.9 13.6 15.7 77 2.5 SSW 43 56 23 30 - - 0.0
19/07:00am 19.9 12.1 16.3 80 2.2 S 52 61 28 33 - - 0.0
19/06:30am 19.9 12.6 16.5 81 2.0 SSW 50 65 27 35 - - 0.0
19/06:12am 19.9 14.0 16.7 82 1.9 SSW 43 61 23 33 - - 0.0
19/06:00am 20.5 14.3 17.3 82 2.0 SSW 46 61 25 33 - - 0.0
19/05:51am 22.0 19.7 16.7 72 3.2 SSW 24 57 13 31 - - 0.0
19/05:30am 21.1 20.8 12.8 59 4.7 W 6 15 3 8 - - 0.0
19/05:00am 20.9 18.9 11.5 55 5.2 WNW 13 15 7 8 - - 0.0
19/04:30am 21.4 18.9 11.1 52 5.7 NW 15 19 8 10 - - 0.0
19/04:00am 21.6 19.2 11.3 52 5.7 NW 15 19 8 10 - - 0.0
19/03:30am 22.3 19.6 11.7 51 5.9 NW 17 22 9 12 - - 0.0
19/03:00am 22.1 19.6 12.4 54 5.5 NW 17 20 9 11 - - 0.0
19/02:30am 22.3 19.9 13.9 59 4.9 NW 19 24 10 13 - - 0.0
19/02:00am 22.5 20.5 14.9 62 4.5 NW 19 24 10 13 - - 0.0
19/01:30am 21.8 21.9 17.4 76 2.7 NW 13 17 7 9 - - 0.0
19/01:00am 21.9 22.9 19.5 86 1.5 NW 13 15 7 8 - - 0.0
19/12:30am 22.1 23.8 20.2 89 1.2 NW 11 13 6 7 - - 0.0
19/12:00am 22.3 23.6 20.2 88 1.4 NW 13 15 7 8 - - 0.0
 
Date/Time
EDT
Temp
°C
App
Temp
°C
Dew
Point
Rel
Hum
%
Delta-T
°C
Wind Press
QNH
hPa
Press
MSL
hPa
Rain
since 9 am
mm
Dir
 
Spd
km/h
Gust
km/h
Spd
kts
Gust
kts
18/11:30pm 22.0 24.2 20.5 91 1.0 WNW 9 13 5 7 - - 0.0
18/11:00pm 21.7 24.2 20.3 92 0.9 NNW 7 9 4 5 - - 0.0
18/10:30pm 21.6 24.1 20.2 92 0.9 NNE 7 11 4 6 - - 0.0
18/10:00pm 21.6 23.7 20.1 91 1.0 E 9 13 5 7 - - 0.0
18/09:30pm 22.1 24.3 20.4 90 1.1 E 9 9 5 5 - - 0.0
18/09:00pm 22.1 23.0 20.0 88 1.3 SE 15 17 8 9 - - 0.0
18/08:30pm 23.1 24.4 20.2 84 1.9 SE 13 19 7 10 - - 0.0
18/08:00pm 24.6 26.1 20.5 78 2.7 N 13 17 7 9 - - 0.0
18/07:30pm 24.3 24.7 20.6 80 2.4 N 19 22 10 12 - - 0.0
18/07:00pm 24.1 25.0 20.8 82 2.2 NNE 17 24 9 13 - - 0.0
18/06:30pm 23.7 24.9 20.6 83 2.0 NNE 15 20 8 11 - - 0.0
18/06:00pm 23.4 23.7 20.7 85 1.8 NE 20 24 11 13 - - 0.0
18/05:30pm 23.2 23.5 20.5 85 1.8 ENE 19 26 10 14 - - 0.0
18/05:00pm 22.9 23.8 20.1 84 1.8 ENE 15 20 8 11 - - 0.0
18/04:30pm 22.9 23.5 20.2 85 1.7 ENE 17 20 9 11 - - 0.0
18/04:00pm 22.9 22.9 20.1 84 1.8 ENE 20 26 11 14 - - 0.0
18/03:30pm 23.0 23.5 20.1 84 1.9 E 17 20 9 11 - - 0.0
18/03:00pm 22.8 22.9 20.0 84 1.8 E 19 24 10 13 - - 0.0
18/02:30pm 23.0 22.5 20.0 83 1.9 E 22 26 12 14 - - 0.0

Other Formats:

Comma delimited format used in spreadsheet applications
http://www.bom.gov.au/fwo/IDN60801/IDN60801.94774.axf

JavaScript Object Notation format (JSON) in row-major order
http://www.bom.gov.au/fwo/IDN60801/IDN60801.94774.json